Main page
METAR-TAF:

METAR-TAF

Airports :

Hamadan International Airport

Hamedan, Iran

latitude: 34-52-05N, longitude: 048-33-08E, elevation: 1757 m

Current weather observation

The report was made 1 hour and 2 minutes ago, at 04:00 UTC
Calm wind
Temperature -2°C
Humidity 100%
Pressure 1019 hPa
Visibility 10 km or more
Few clouds at a height of 4000 ft

METAR: OIHH 090400Z 00000KT 9999 FEW040 M02/M02 Q1019

Time: 08:32 (05:02 UTC)


TAF: missing

Weather observations and forecasts of more than 4000 airports (METAR and TAF reports).

The available stations are represented by yellow and red dots on the map.

Hover mouse over dot to see the name of the station.

Then click to see weather observations and forecasts.

To change the map : click on the green buttons with a black cross to zoom in, on the green button with a dash to zoom out, or on the green arrows for adjacent maps.


METAR-TAF: